sensor_id;sensor_type;location;lat;lon;timestamp;pressure;altitude;pressure_sealevel;temperature;humidity
77159;BME280;66129;45.890;13.714;2023-08-21T00:01:23;101452.09;;;21.57;100.00
77159;BME280;66129;45.890;13.714;2023-08-21T00:04:30;101429.78;;;21.38;99.99
77159;BME280;66129;45.890;13.714;2023-08-21T00:06:58;101448.84;;;21.41;100.00
77159;BME280;66129;45.890;13.714;2023-08-21T00:09:26;101429.88;;;21.29;100.00
77159;BME280;66129;45.890;13.714;2023-08-21T00:12:11;101425.59;;;21.27;100.00
77159;BME280;66129;45.890;13.714;2023-08-21T00:25:06;101440.56;;;21.11;100.00
77159;BME280;66129;45.890;13.714;2023-08-21T00:51:57;101454.59;;;21.00;100.00
77159;BME280;66129;45.890;13.714;2023-08-21T00:58:31;101425.44;;;20.63;100.00
77159;BME280;66129;45.890;13.714;2023-08-21T01:01:31;101419.28;;;20.70;100.00
77159;BME280;66129;45.890;13.714;2023-08-21T01:17:31;101456.53;;;20.83;100.00
77159;BME280;66129;45.890;13.714;2023-08-21T01:20:10;101468.63;;;20.88;100.00
77159;BME280;66129;45.890;13.714;2023-08-21T02:20:42;101459.91;;;20.02;100.00
77159;BME280;66129;45.890;13.714;2023-08-21T03:07:40;101420.31;;;19.51;100.00
77159;BME280;66129;45.890;13.714;2023-08-21T03:10:46;101448.81;;;19.69;100.00
77159;BME280;66129;45.890;13.714;2023-08-21T03:24:23;101410.75;;;19.54;100.00
77159;BME280;66129;45.890;13.714;2023-08-21T03:44:50;101408.22;;;19.47;100.00
77159;BME280;66129;45.890;13.714;2023-08-21T03:55:15;101428.09;;;19.55;100.00
77159;BME280;66129;45.890;13.714;2023-08-21T03:58:32;101431.66;;;19.42;100.00
77159;BME280;66129;45.890;13.714;2023-08-21T04:12:21;101449.84;;;19.38;100.00
77159;BME280;66129;45.890;13.714;2023-08-21T04:32:25;101461.16;;;19.35;100.00
77159;BME280;66129;45.890;13.714;2023-08-21T04:34:58;101455.06;;;19.35;100.00
77159;BME280;66129;45.890;13.714;2023-08-21T04:37:32;101446.44;;;19.33;100.00
77159;BME280;66129;45.890;13.714;2023-08-21T04:39:58;101436.09;;;19.18;100.00
77159;BME280;66129;45.890;13.714;2023-08-21T04:42:32;101441.22;;;19.34;100.00
77159;BME280;66129;45.890;13.714;2023-08-21T04:44:57;101455.03;;;19.47;100.00
77159;BME280;66129;45.890;13.714;2023-08-21T04:47:33;101448.84;;;19.67;100.00
77159;BME280;66129;45.890;13.714;2023-08-21T04:50:02;101439.16;;;19.89;100.00
77159;BME280;66129;45.890;13.714;2023-08-21T04:52:28;101433.66;;;20.24;100.00
77159;BME280;66129;45.890;13.714;2023-08-21T04:54:56;101471.41;;;20.70;100.00
77159;BME280;66129;45.890;13.714;2023-08-21T04:57:22;101461.56;;;20.99;100.00
77159;BME280;66129;45.890;13.714;2023-08-21T04:59:48;101470.63;;;21.39;98.14
77159;BME280;66129;45.890;13.714;2023-08-21T05:02:14;101455.56;;;21.62;94.68
77159;BME280;66129;45.890;13.714;2023-08-21T05:04:39;101458.81;;;21.76;93.95
77159;BME280;66129;45.890;13.714;2023-08-21T05:07:05;101473.94;;;22.09;92.65
77159;BME280;66129;45.890;13.714;2023-08-21T05:09:32;101471.00;;;22.30;91.69
77159;BME280;66129;45.890;13.714;2023-08-21T05:11:57;101459.34;;;22.50;90.35
77159;BME280;66129;45.890;13.714;2023-08-21T05:14:23;101476.03;;;22.90;87.50
77159;BME280;66129;45.890;13.714;2023-08-21T05:16:49;101483.19;;;23.26;85.97
77159;BME280;66129;45.890;13.714;2023-08-21T05:19:15;101482.41;;;23.60;84.18
77159;BME280;66129;45.890;13.714;2023-08-21T05:21:46;101469.97;;;23.69;83.49
77159;BME280;66129;45.890;13.714;2023-08-21T05:24:11;101465.69;;;23.67;84.05
77159;BME280;66129;45.890;13.714;2023-08-21T05:26:40;101463.72;;;23.78;83.36
77159;BME280;66129;45.890;13.714;2023-08-21T05:29:05;101470.47;;;24.23;82.13
77159;BME280;66129;45.890;13.714;2023-08-21T05:31:31;101479.13;;;24.26;80.61
77159;BME280;66129;45.890;13.714;2023-08-21T05:34:08;101453.66;;;24.65;79.44
77159;BME280;66129;45.890;13.714;2023-08-21T05:36:46;101480.78;;;24.95;77.91
77159;BME280;66129;45.890;13.714;2023-08-21T05:39:11;101461.06;;;25.11;76.99
77159;BME280;66129;45.890;13.714;2023-08-21T05:41:39;101456.28;;;25.27;75.66
77159;BME280;66129;45.890;13.714;2023-08-21T05:44:04;101476.63;;;25.77;74.81
77159;BME280;66129;45.890;13.714;2023-08-21T05:46:30;101478.72;;;26.20;73.50
77159;BME280;66129;45.890;13.714;2023-08-21T05:48:56;101463.72;;;26.50;73.38
77159;BME280;66129;45.890;13.714;2023-08-21T05:51:22;101473.47;;;27.19;69.66
77159;BME280;66129;45.890;13.714;2023-08-21T05:53:49;101475.47;;;27.36;67.95
77159;BME280;66129;45.890;13.714;2023-08-21T05:56:17;101476.72;;;27.72;66.73
77159;BME280;66129;45.890;13.714;2023-08-21T05:58:59;101461.47;;;28.01;65.06
77159;BME280;66129;45.890;13.714;2023-08-21T06:01:35;101470.19;;;27.82;66.63
77159;BME280;66129;45.890;13.714;2023-08-21T06:04:04;101472.50;;;28.11;65.59
77159;BME280;66129;45.890;13.714;2023-08-21T06:06:29;101492.75;;;28.51;62.27
77159;BME280;66129;45.890;13.714;2023-08-21T06:08:55;101472.72;;;29.07;61.76
77159;BME280;66129;45.890;13.714;2023-08-21T06:11:23;101475.69;;;29.38;60.21
77159;BME280;66129;45.890;13.714;2023-08-21T06:13:48;101489.97;;;29.34;61.33
77159;BME280;66129;45.890;13.714;2023-08-21T06:16:16;101466.25;;;29.51;60.54
77159;BME280;66129;45.890;13.714;2023-08-21T06:18:42;101473.41;;;29.49;61.12
77159;BME280;66129;45.890;13.714;2023-08-21T06:21:07;101492.56;;;29.54;61.56
77159;BME280;66129;45.890;13.714;2023-08-21T06:23:35;101492.94;;;30.19;59.54
77159;BME280;66129;45.890;13.714;2023-08-21T06:26:00;101479.69;;;30.36;58.44
77159;BME280;66129;45.890;13.714;2023-08-21T06:28:26;101500.38;;;30.11;59.26
77159;BME280;66129;45.890;13.714;2023-08-21T06:30:58;101489.88;;;29.91;59.91
77159;BME280;66129;45.890;13.714;2023-08-21T06:33:23;101482.19;;;30.22;58.27
77159;BME280;66129;45.890;13.714;2023-08-21T06:35:49;101491.50;;;30.64;57.39
77159;BME280;66129;45.890;13.714;2023-08-21T06:38:14;101499.88;;;30.38;57.12
77159;BME280;66129;45.890;13.714;2023-08-21T06:40:40;101476.84;;;30.40;53.93
77159;BME280;66129;45.890;13.714;2023-08-21T06:43:05;101508.38;;;30.95;55.10
77159;BME280;66129;45.890;13.714;2023-08-21T06:45:31;101487.84;;;30.83;56.96
77159;BME280;66129;45.890;13.714;2023-08-21T06:47:57;101511.09;;;31.11;54.39
77159;BME280;66129;45.890;13.714;2023-08-21T06:50:23;101501.59;;;31.39;54.30
77159;BME280;66129;45.890;13.714;2023-08-21T06:52:48;101476.22;;;31.51;53.47
77159;BME280;66129;45.890;13.714;2023-08-21T06:55:14;101491.81;;;31.72;51.45
77159;BME280;66129;45.890;13.714;2023-08-21T06:57:40;101476.72;;;32.03;52.28
77159;BME280;66129;45.890;13.714;2023-08-21T07:00:06;101513.56;;;32.84;49.92
77159;BME280;66129;45.890;13.714;2023-08-21T07:02:31;101486.34;;;33.08;49.09
77159;BME280;66129;45.890;13.714;2023-08-21T07:04:57;101488.63;;;33.00;49.23
77159;BME280;66129;45.890;13.714;2023-08-21T07:07:22;101504.28;;;33.74;46.58
77159;BME280;66129;45.890;13.714;2023-08-21T07:09:50;101499.59;;;33.78;46.07
77159;BME280;66129;45.890;13.714;2023-08-21T07:12:15;101502.13;;;33.67;46.96
77159;BME280;66129;45.890;13.714;2023-08-21T07:14:41;101487.19;;;33.64;46.51
77159;BME280;66129;45.890;13.714;2023-08-21T07:17:06;101484.28;;;34.08;47.07
77159;BME280;66129;45.890;13.714;2023-08-21T07:19:32;101486.03;;;34.35;46.75
77159;BME280;66129;45.890;13.714;2023-08-21T07:21:57;101487.41;;;34.92;43.40
77159;BME280;66129;45.890;13.714;2023-08-21T07:24:23;101495.94;;;34.72;44.20
77159;BME280;66129;45.890;13.714;2023-08-21T07:26:48;101509.41;;;34.56;45.14
77159;BME280;66129;45.890;13.714;2023-08-21T07:29:17;101496.69;;;34.47;46.89
77159;BME280;66129;45.890;13.714;2023-08-21T07:31:43;101491.78;;;34.41;47.13
77159;BME280;66129;45.890;13.714;2023-08-21T07:34:09;101490.41;;;34.48;45.98
77159;BME280;66129;45.890;13.714;2023-08-21T07:36:34;101493.50;;;34.55;47.60
77159;BME280;66129;45.890;13.714;2023-08-21T07:39:00;101499.78;;;34.80;45.46
77159;BME280;66129;45.890;13.714;2023-08-21T07:41:28;101496.81;;;35.22;44.29
77159;BME280;66129;45.890;13.714;2023-08-21T07:43:54;101481.53;;;34.99;45.69
77159;BME280;66129;45.890;13.714;2023-08-21T07:46:20;101487.53;;;35.28;44.52
77159;BME280;66129;45.890;13.714;2023-08-21T07:48:46;101492.91;;;35.63;44.10
77159;BME280;66129;45.890;13.714;2023-08-21T07:51:11;101482.44;;;35.96;41.92
77159;BME280;66129;45.890;13.714;2023-08-21T07:53:37;101472.22;;;36.14;41.01
77159;BME280;66129;45.890;13.714;2023-08-21T07:56:04;101484.06;;;36.33;41.65
77159;BME280;66129;45.890;13.714;2023-08-21T07:58:30;101484.19;;;37.11;38.24
77159;BME280;66129;45.890;13.714;2023-08-21T08:00:56;101462.41;;;37.27;37.76
77159;BME280;66129;45.890;13.714;2023-08-21T08:03:22;101492.09;;;37.68;39.16
77159;BME280;66129;45.890;13.714;2023-08-21T08:05:48;101479.53;;;37.68;39.98
77159;BME280;66129;45.890;13.714;2023-08-21T08:08:13;101489.94;;;37.40;40.50
77159;BME280;66129;45.890;13.714;2023-08-21T08:10:41;101483.38;;;36.76;41.21
77159;BME280;66129;45.890;13.714;2023-08-21T08:13:07;101482.50;;;36.65;42.64
77159;BME280;66129;45.890;13.714;2023-08-21T08:15:33;101468.84;;;37.13;39.83
77159;BME280;66129;45.890;13.714;2023-08-21T08:18:01;101495.97;;;37.09;40.25
77159;BME280;66129;45.890;13.714;2023-08-21T08:20:27;101471.16;;;37.73;38.33
77159;BME280;66129;45.890;13.714;2023-08-21T08:22:55;101491.00;;;38.12;37.19
77159;BME280;66129;45.890;13.714;2023-08-21T08:25:24;101474.00;;;38.02;37.70
77159;BME280;66129;45.890;13.714;2023-08-21T08:27:53;101473.69;;;38.16;37.57
77159;BME280;66129;45.890;13.714;2023-08-21T08:30:18;101474.41;;;38.18;37.08
77159;BME280;66129;45.890;13.714;2023-08-21T08:32:44;101473.50;;;38.40;36.62
77159;BME280;66129;45.890;13.714;2023-08-21T08:35:12;101472.91;;;38.36;34.43
77159;BME280;66129;45.890;13.714;2023-08-21T08:37:40;101474.59;;;38.58;34.81
77159;BME280;66129;45.890;13.714;2023-08-21T08:40:07;101457.59;;;38.27;33.92
77159;BME280;66129;45.890;13.714;2023-08-21T08:42:34;101479.06;;;38.89;31.88
77159;BME280;66129;45.890;13.714;2023-08-21T08:45:02;101466.25;;;38.92;31.78
77159;BME280;66129;45.890;13.714;2023-08-21T08:47:32;101467.28;;;38.80;31.44
77159;BME280;66129;45.890;13.714;2023-08-21T08:50:01;101473.31;;;38.93;30.86
77159;BME280;66129;45.890;13.714;2023-08-21T08:52:31;101473.31;;;38.93;31.60
77159;BME280;66129;45.890;13.714;2023-08-21T08:54:59;101473.72;;;39.18;32.26
77159;BME280;66129;45.890;13.714;2023-08-21T08:57:24;101464.56;;;39.21;30.82
77159;BME280;66129;45.890;13.714;2023-08-21T08:59:50;101457.97;;;39.05;30.04
77159;BME280;66129;45.890;13.714;2023-08-21T09:02:16;101459.91;;;39.23;31.04
77159;BME280;66129;45.890;13.714;2023-08-21T09:04:41;101464.72;;;39.29;31.52
77159;BME280;66129;45.890;13.714;2023-08-21T09:07:08;101469.41;;;39.07;29.52
77159;BME280;66129;45.890;13.714;2023-08-21T09:09:41;101460.28;;;38.89;30.45
77159;BME280;66129;45.890;13.714;2023-08-21T09:12:13;101464.69;;;38.69;30.72
77159;BME280;66129;45.890;13.714;2023-08-21T09:14:40;101457.22;;;38.93;30.89
77159;BME280;66129;45.890;13.714;2023-08-21T09:17:06;101448.72;;;38.88;30.65
77159;BME280;66129;45.890;13.714;2023-08-21T09:19:31;101453.16;;;39.38;31.05
77159;BME280;66129;45.890;13.714;2023-08-21T09:21:57;101451.09;;;39.51;30.13
77159;BME280;66129;45.890;13.714;2023-08-21T09:24:23;101446.59;;;39.61;28.67
77159;BME280;66129;45.890;13.714;2023-08-21T09:26:49;101444.50;;;39.64;29.22
77159;BME280;66129;45.890;13.714;2023-08-21T09:29:15;101441.41;;;39.78;28.42
77159;BME280;66129;45.890;13.714;2023-08-21T09:31:40;101443.31;;;40.16;28.81
77159;BME280;66129;45.890;13.714;2023-08-21T09:34:06;101442.44;;;39.38;28.31
77159;BME280;66129;45.890;13.714;2023-08-21T09:36:32;101442.53;;;39.66;28.25
77159;BME280;66129;45.890;13.714;2023-08-21T09:38:58;101426.94;;;39.51;29.13
77159;BME280;66129;45.890;13.714;2023-08-21T09:41:24;101440.69;;;38.98;29.12
77159;BME280;66129;45.890;13.714;2023-08-21T09:43:50;101421.94;;;39.46;28.95
77159;BME280;66129;45.890;13.714;2023-08-21T09:46:26;101424.00;;;39.73;28.88
77159;BME280;66129;45.890;13.714;2023-08-21T09:48:52;101422.47;;;39.80;27.84
77159;BME280;66129;45.890;13.714;2023-08-21T09:51:18;101427.47;;;40.03;28.65
77159;BME280;66129;45.890;13.714;2023-08-21T09:53:44;101420.53;;;40.01;28.48
77159;BME280;66129;45.890;13.714;2023-08-21T09:56:10;101418.00;;;39.11;28.62
77159;BME280;66129;45.890;13.714;2023-08-21T09:58:36;101416.41;;;38.99;27.79
77159;BME280;66129;45.890;13.714;2023-08-21T10:01:05;101412.31;;;39.25;27.86
77159;BME280;66129;45.890;13.714;2023-08-21T10:03:40;101410.31;;;39.66;27.84
77159;BME280;66129;45.890;13.714;2023-08-21T10:06:08;101402.91;;;39.59;27.15
77159;BME280;66129;45.890;13.714;2023-08-21T10:08:37;101396.16;;;38.86;28.66
77159;BME280;66129;45.890;13.714;2023-08-21T10:11:07;101392.13;;;39.40;28.07
77159;BME280;66129;45.890;13.714;2023-08-21T10:13:34;101388.19;;;39.53;27.67
77159;BME280;66129;45.890;13.714;2023-08-21T10:16:01;101383.53;;;39.46;28.18
77159;BME280;66129;45.890;13.714;2023-08-21T10:18:34;101387.13;;;39.65;28.32
77159;BME280;66129;45.890;13.714;2023-08-21T10:23:40;101383.88;;;40.37;27.41
77159;BME280;66129;45.890;13.714;2023-08-21T10:26:07;101375.53;;;40.77;26.74
77159;BME280;66129;45.890;13.714;2023-08-21T10:29:00;101389.06;;;40.58;25.78
77159;BME280;66129;45.890;13.714;2023-08-21T10:31:31;101390.50;;;40.33;25.89
77159;BME280;66129;45.890;13.714;2023-08-21T10:33:58;101382.91;;;39.72;26.74
77159;BME280;66129;45.890;13.714;2023-08-21T10:39:21;101369.88;;;39.68;27.26
77159;BME280;66129;45.890;13.714;2023-08-21T10:44:37;101366.22;;;39.88;27.15
77159;BME280;66129;45.890;13.714;2023-08-21T10:47:36;101371.00;;;39.75;27.49
77159;BME280;66129;45.890;13.714;2023-08-21T10:50:04;101364.34;;;39.60;27.35
77159;BME280;66129;45.890;13.714;2023-08-21T10:52:41;101376.59;;;39.43;26.64
77159;BME280;66129;45.890;13.714;2023-08-21T10:55:16;101367.88;;;39.70;27.06
77159;BME280;66129;45.890;13.714;2023-08-21T10:57:45;101366.88;;;39.52;26.61
77159;BME280;66129;45.890;13.714;2023-08-21T11:00:13;101363.16;;;39.43;27.99
77159;BME280;66129;45.890;13.714;2023-08-21T11:02:41;101374.88;;;39.33;28.28
77159;BME280;66129;45.890;13.714;2023-08-21T11:05:08;101369.59;;;39.80;26.94
77159;BME280;66129;45.890;13.714;2023-08-21T11:07:42;101366.78;;;40.01;26.76
77159;BME280;66129;45.890;13.714;2023-08-21T11:10:18;101363.91;;;40.40;27.35
77159;BME280;66129;45.890;13.714;2023-08-21T11:12:53;101366.34;;;39.67;26.98
77159;BME280;66129;45.890;13.714;2023-08-21T11:15:20;101365.94;;;40.00;27.32
77159;BME280;66129;45.890;13.714;2023-08-21T11:17:56;101368.75;;;39.99;27.11
77159;BME280;66129;45.890;13.714;2023-08-21T11:20:22;101358.09;;;40.44;26.50
77159;BME280;66129;45.890;13.714;2023-08-21T11:22:48;101364.75;;;40.22;25.53
77159;BME280;66129;45.890;13.714;2023-08-21T11:25:15;101362.06;;;40.31;24.49
77159;BME280;66129;45.890;13.714;2023-08-21T11:27:41;101362.47;;;40.36;24.71
77159;BME280;66129;45.890;13.714;2023-08-21T11:30:10;101358.53;;;40.21;25.73
77159;BME280;66129;45.890;13.714;2023-08-21T11:32:36;101357.19;;;39.98;26.03
77159;BME280;66129;45.890;13.714;2023-08-21T11:35:02;101349.94;;;39.89;25.58
77159;BME280;66129;45.890;13.714;2023-08-21T11:37:28;101365.41;;;39.29;27.44
77159;BME280;66129;45.890;13.714;2023-08-21T11:39:56;101363.47;;;39.40;26.59
77159;BME280;66129;45.890;13.714;2023-08-21T11:42:32;101345.50;;;39.50;27.24
77159;BME280;66129;45.890;13.714;2023-08-21T11:45:00;101341.25;;;39.29;27.37
77159;BME280;66129;45.890;13.714;2023-08-21T11:47:31;101349.91;;;38.93;27.52
77159;BME280;66129;45.890;13.714;2023-08-21T11:50:04;101350.53;;;38.76;27.15
77159;BME280;66129;45.890;13.714;2023-08-21T11:52:31;101354.38;;;38.83;27.96
77159;BME280;66129;45.890;13.714;2023-08-21T11:54:57;101346.94;;;38.96;27.94
77159;BME280;66129;45.890;13.714;2023-08-21T11:57:23;101343.69;;;39.02;27.66
77159;BME280;66129;45.890;13.714;2023-08-21T11:59:53;101343.66;;;38.83;27.64
77159;BME280;66129;45.890;13.714;2023-08-21T12:02:23;101345.25;;;38.65;28.04
77159;BME280;66129;45.890;13.714;2023-08-21T12:05:01;101332.84;;;38.23;28.19
77159;BME280;66129;45.890;13.714;2023-08-21T12:07:28;101335.69;;;37.70;28.69
77159;BME280;66129;45.890;13.714;2023-08-21T12:09:54;101321.28;;;37.51;28.50
77159;BME280;66129;45.890;13.714;2023-08-21T12:12:19;101310.63;;;37.29;29.07
77159;BME280;66129;45.890;13.714;2023-08-21T12:14:45;101321.38;;;37.07;29.54
77159;BME280;66129;45.890;13.714;2023-08-21T12:17:11;101324.31;;;36.49;29.22
77159;BME280;66129;45.890;13.714;2023-08-21T12:19:37;101308.97;;;36.40;30.62
77159;BME280;66129;45.890;13.714;2023-08-21T12:22:03;101311.22;;;36.57;29.74
77159;BME280;66129;45.890;13.714;2023-08-21T12:24:28;101314.81;;;36.89;29.47
77159;BME280;66129;45.890;13.714;2023-08-21T12:26:54;101309.13;;;36.93;30.97
77159;BME280;66129;45.890;13.714;2023-08-21T12:29:20;101309.38;;;37.01;30.78
77159;BME280;66129;45.890;13.714;2023-08-21T12:31:46;101306.56;;;37.03;29.52
77159;BME280;66129;45.890;13.714;2023-08-21T12:34:12;101310.69;;;37.18;31.05
77159;BME280;66129;45.890;13.714;2023-08-21T12:36:37;101299.25;;;37.16;29.35
77159;BME280;66129;45.890;13.714;2023-08-21T12:39:04;101295.22;;;37.10;30.64
77159;BME280;66129;45.890;13.714;2023-08-21T12:41:30;101298.31;;;36.62;30.59
77159;BME280;66129;45.890;13.714;2023-08-21T12:43:56;101290.41;;;36.50;30.21
77159;BME280;66129;45.890;13.714;2023-08-21T12:46:22;101295.16;;;36.68;29.37
77159;BME280;66129;45.890;13.714;2023-08-21T12:48:47;101285.94;;;36.50;29.85
77159;BME280;66129;45.890;13.714;2023-08-21T12:51:13;101268.19;;;36.27;29.12
77159;BME280;66129;45.890;13.714;2023-08-21T12:53:39;101287.63;;;36.51;28.94
77159;BME280;66129;45.890;13.714;2023-08-21T12:56:05;101295.97;;;36.36;28.86
77159;BME280;66129;45.890;13.714;2023-08-21T12:58:30;101275.91;;;36.30;28.99
77159;BME280;66129;45.890;13.714;2023-08-21T13:00:58;101281.03;;;36.22;28.37
77159;BME280;66129;45.890;13.714;2023-08-21T13:03:24;101281.63;;;36.15;27.76
77159;BME280;66129;45.890;13.714;2023-08-21T13:05:49;101279.47;;;36.31;28.46
77159;BME280;66129;45.890;13.714;2023-08-21T13:08:15;101283.59;;;36.35;29.95
77159;BME280;66129;45.890;13.714;2023-08-21T13:10:40;101278.13;;;36.25;29.80
77159;BME280;66129;45.890;13.714;2023-08-21T13:13:06;101272.75;;;36.03;29.24
77159;BME280;66129;45.890;13.714;2023-08-21T13:15:32;101265.06;;;35.99;30.47
77159;BME280;66129;45.890;13.714;2023-08-21T13:17:57;101270.56;;;36.08;29.12
77159;BME280;66129;45.890;13.714;2023-08-21T13:20:23;101274.22;;;36.18;28.67
77159;BME280;66129;45.890;13.714;2023-08-21T13:22:50;101277.13;;;36.15;29.11
77159;BME280;66129;45.890;13.714;2023-08-21T13:25:21;101272.16;;;36.22;28.69
77159;BME280;66129;45.890;13.714;2023-08-21T13:27:48;101262.44;;;36.10;28.80
77159;BME280;66129;45.890;13.714;2023-08-21T13:30:14;101270.94;;;36.15;29.96
77159;BME280;66129;45.890;13.714;2023-08-21T13:32:39;101257.44;;;36.05;29.52
77159;BME280;66129;45.890;13.714;2023-08-21T13:35:05;101254.44;;;36.10;29.22
77159;BME280;66129;45.890;13.714;2023-08-21T13:37:34;101256.00;;;36.12;28.36
77159;BME280;66129;45.890;13.714;2023-08-21T13:39:59;101243.75;;;36.10;28.88
77159;BME280;66129;45.890;13.714;2023-08-21T13:42:26;101254.16;;;36.02;29.68
77159;BME280;66129;45.890;13.714;2023-08-21T13:44:56;101240.78;;;36.02;29.05
77159;BME280;66129;45.890;13.714;2023-08-21T13:47:22;101238.56;;;35.85;28.42
77159;BME280;66129;45.890;13.714;2023-08-21T13:49:48;101240.31;;;35.97;29.64
77159;BME280;66129;45.890;13.714;2023-08-21T13:52:13;101238.13;;;36.02;28.45
77159;BME280;66129;45.890;13.714;2023-08-21T13:54:39;101236.94;;;36.06;29.61
77159;BME280;66129;45.890;13.714;2023-08-21T13:57:04;101232.09;;;36.11;29.18
77159;BME280;66129;45.890;13.714;2023-08-21T13:59:30;101229.31;;;36.12;29.01
77159;BME280;66129;45.890;13.714;2023-08-21T14:01:55;101228.34;;;36.13;29.45
77159;BME280;66129;45.890;13.714;2023-08-21T14:04:21;101230.75;;;36.05;29.37
77159;BME280;66129;45.890;13.714;2023-08-21T14:06:46;101225.91;;;36.10;29.29
77159;BME280;66129;45.890;13.714;2023-08-21T14:09:12;101226.38;;;36.04;28.84
77159;BME280;66129;45.890;13.714;2023-08-21T14:11:38;101222.94;;;35.91;30.14
77159;BME280;66129;45.890;13.714;2023-08-21T14:14:04;101219.53;;;36.00;31.13
77159;BME280;66129;45.890;13.714;2023-08-21T14:16:29;101199.88;;;35.90;30.72
77159;BME280;66129;45.890;13.714;2023-08-21T14:18:55;101219.34;;;36.03;30.85
77159;BME280;66129;45.890;13.714;2023-08-21T14:21:20;101217.41;;;36.05;30.86
77159;BME280;66129;45.890;13.714;2023-08-21T14:23:45;101208.75;;;36.02;31.33
77159;BME280;66129;45.890;13.714;2023-08-21T14:26:11;101213.75;;;36.06;30.34
77159;BME280;66129;45.890;13.714;2023-08-21T14:28:36;101210.81;;;35.98;30.99
77159;BME280;66129;45.890;13.714;2023-08-21T14:31:02;101215.06;;;36.01;30.74
77159;BME280;66129;45.890;13.714;2023-08-21T14:33:27;101212.13;;;35.93;30.51
77159;BME280;66129;45.890;13.714;2023-08-21T14:35:53;101206.44;;;35.86;30.33
77159;BME280;66129;45.890;13.714;2023-08-21T14:38:18;101203.75;;;35.86;30.74
77159;BME280;66129;45.890;13.714;2023-08-21T14:40:44;101213.72;;;35.84;30.75
77159;BME280;66129;45.890;13.714;2023-08-21T14:43:10;101219.53;;;35.78;31.22
77159;BME280;66129;45.890;13.714;2023-08-21T14:45:35;101204.47;;;35.66;30.71
77159;BME280;66129;45.890;13.714;2023-08-21T14:48:01;101211.00;;;35.73;31.16
77159;BME280;66129;45.890;13.714;2023-08-21T14:50:26;101205.91;;;35.70;29.55
77159;BME280;66129;45.890;13.714;2023-08-21T14:52:52;101209.53;;;35.69;29.60
77159;BME280;66129;45.890;13.714;2023-08-21T14:55:18;101204.94;;;35.71;30.27
77159;BME280;66129;45.890;13.714;2023-08-21T14:57:43;101206.63;;;35.72;30.71
77159;BME280;66129;45.890;13.714;2023-08-21T15:00:09;101202.25;;;35.60;29.27
77159;BME280;66129;45.890;13.714;2023-08-21T15:02:35;101196.19;;;35.58;29.50
77159;BME280;66129;45.890;13.714;2023-08-21T15:05:02;101207.28;;;35.52;28.95
77159;BME280;66129;45.890;13.714;2023-08-21T15:07:30;101209.47;;;35.47;29.74
77159;BME280;66129;45.890;13.714;2023-08-21T15:09:56;101206.53;;;35.40;29.62
77159;BME280;66129;45.890;13.714;2023-08-21T15:12:21;101209.69;;;35.44;29.85
77159;BME280;66129;45.890;13.714;2023-08-21T15:14:47;101202.78;;;35.42;29.89
77159;BME280;66129;45.890;13.714;2023-08-21T15:17:13;101195.63;;;35.42;30.15
77159;BME280;66129;45.890;13.714;2023-08-21T15:19:39;101187.38;;;35.35;29.28
77159;BME280;66129;45.890;13.714;2023-08-21T15:22:04;101194.63;;;35.33;29.27
77159;BME280;66129;45.890;13.714;2023-08-21T15:24:29;101197.06;;;35.36;29.87
77159;BME280;66129;45.890;13.714;2023-08-21T15:26:55;101190.94;;;35.23;28.78
77159;BME280;66129;45.890;13.714;2023-08-21T15:29:20;101205.75;;;35.27;29.01
77159;BME280;66129;45.890;13.714;2023-08-21T15:31:46;101195.94;;;35.27;29.69
77159;BME280;66129;45.890;13.714;2023-08-21T15:34:11;101188.66;;;35.29;30.00
77159;BME280;66129;45.890;13.714;2023-08-21T15:36:37;101199.22;;;35.31;29.23
77159;BME280;66129;45.890;13.714;2023-08-21T15:39:02;101182.22;;;35.21;29.68
77159;BME280;66129;45.890;13.714;2023-08-21T15:41:28;101195.69;;;35.19;29.70
77159;BME280;66129;45.890;13.714;2023-08-21T15:43:53;101187.59;;;35.08;30.39
77159;BME280;66129;45.890;13.714;2023-08-21T15:46:19;101183.22;;;35.07;29.28
77159;BME280;66129;45.890;13.714;2023-08-21T15:48:44;101187.50;;;35.10;29.45
77159;BME280;66129;45.890;13.714;2023-08-21T15:51:10;101190.84;;;35.01;29.71
77159;BME280;66129;45.890;13.714;2023-08-21T15:53:35;101183.75;;;34.89;30.13
77159;BME280;66129;45.890;13.714;2023-08-21T15:56:01;101184.69;;;34.88;30.66
77159;BME280;66129;45.890;13.714;2023-08-21T15:58:27;101186.97;;;34.81;31.45
77159;BME280;66129;45.890;13.714;2023-08-21T16:00:53;101182.00;;;34.77;31.48
77159;BME280;66129;45.890;13.714;2023-08-21T16:03:18;101184.75;;;34.75;31.77
77159;BME280;66129;45.890;13.714;2023-08-21T16:05:44;101172.63;;;34.71;33.89
77159;BME280;66129;45.890;13.714;2023-08-21T16:08:09;101172.97;;;34.67;32.27
77159;BME280;66129;45.890;13.714;2023-08-21T16:10:35;101173.94;;;34.66;32.18
77159;BME280;66129;45.890;13.714;2023-08-21T16:13:02;101174.91;;;34.52;32.43
77159;BME280;66129;45.890;13.714;2023-08-21T16:15:27;101173.84;;;34.42;33.26
77159;BME280;66129;45.890;13.714;2023-08-21T16:17:53;101171.97;;;34.32;32.66
77159;BME280;66129;45.890;13.714;2023-08-21T16:20:19;101170.69;;;34.25;32.82
77159;BME280;66129;45.890;13.714;2023-08-21T16:22:44;101170.91;;;34.22;34.95
77159;BME280;66129;45.890;13.714;2023-08-21T16:25:10;101169.00;;;34.24;33.77
77159;BME280;66129;45.890;13.714;2023-08-21T16:27:38;101170.81;;;34.24;33.35
77159;BME280;66129;45.890;13.714;2023-08-21T16:30:04;101165.19;;;34.16;33.19